Time;durP1;ratioP1;P1;durP2;ratioP2;P2;SDS_P1;SDS_P2;PMS_P1;PMS_P2;Temp;Humidity;BMP_temperature;BMP_pressure;BME280_temperature;BME280_humidity;BME280_pressure;Samples;Min_cycle;Max_cycle;Signal;HPM_P1;HPM_P2
2022/07/10 00:00:24;;;;;;;16.02;6.70;;;;;;;20.88;48.23;102744.16;5069508;28;20024;-67
2022/07/10 00:02:52;;;;;;;17.23;5.53;;;;;;;20.66;48.31;102743.22;5069814;28;20097;-66
2022/07/10 00:05:18;;;;;;;11.55;2.22;;;;;;;20.73;48.34;102743.91;5070765;28;20031;-66
2022/07/10 00:07:44;;;;;;;10.13;1.52;;;;;;;20.52;48.99;102741.91;5069136;28;20033;-65
2022/07/10 00:10:09;;;;;;;5.22;1.33;;;;;;;20.40;49.23;102744.66;5069641;28;20063;-65
2022/07/10 00:12:35;;;;;;;11.25;2.13;;;;;;;20.87;48.04;102739.78;5069602;28;20033;-67
2022/07/10 00:15:01;;;;;;;9.05;1.52;;;;;;;20.81;47.93;102732.56;5070606;28;20060;-67
2022/07/10 00:17:27;;;;;;;4.65;1.30;;;;;;;20.62;48.29;102731.13;5067348;28;20036;-66
2022/07/10 00:19:52;;;;;;;9.25;2.03;;;;;;;20.78;48.18;102730.31;5069422;28;20033;-66
2022/07/10 00:22:18;;;;;;;9.02;1.33;;;;;;;21.06;47.24;102738.50;5069683;28;20025;-67
2022/07/10 00:24:43;;;;;;;6.97;2.10;;;;;;;21.14;47.27;102740.81;5069125;28;20404;-66
2022/07/10 00:27:09;;;;;;;2.72;1.15;;;;;;;20.97;47.33;102735.31;5069320;28;20392;-68
2022/07/10 00:29:34;;;;;;;12.55;1.98;;;;;;;20.76;47.60;102730.56;5069727;28;20411;-66
2022/07/10 00:31:59;;;;;;;7.35;1.63;;;;;;;20.09;49.26;102745.09;5069216;28;20073;-67
2022/07/10 00:34:25;;;;;;;6.85;1.35;;;;;;;20.13;49.45;102730.72;5069113;28;20334;-65
2022/07/10 00:36:50;;;;;;;5.65;1.35;;;;;;;20.43;48.82;102735.16;5069591;28;20036;-66
2022/07/10 00:39:16;;;;;;;7.63;1.25;;;;;;;20.28;48.63;102732.97;5050680;28;20070;-65
2022/07/10 00:41:41;;;;;;;8.63;1.23;;;;;;;20.29;48.68;102736.50;5071451;28;20327;-66
2022/07/10 00:44:06;;;;;;;3.83;1.25;;;;;;;20.45;47.99;102731.09;5069400;28;20020;-67
2022/07/10 00:46:32;;;;;;;7.35;1.60;;;;;;;20.25;48.35;102733.44;5068949;28;20041;-67
2022/07/10 00:48:58;;;;;;;6.95;1.50;;;;;;;20.43;47.90;102737.88;5068742;28;20368;-66
2022/07/10 00:51:29;;;;;;;5.43;1.02;;;;;;;20.42;47.52;102737.03;5069052;28;20036;-67
2022/07/10 00:53:56;;;;;;;11.07;1.48;;;;;;;20.12;48.54;102731.81;5068563;28;20036;-66
2022/07/10 00:56:23;;;;;;;5.85;1.40;;;;;;;20.43;48.09;102727.78;5069321;28;20479;-66
2022/07/10 00:58:49;;;;;;;4.45;1.05;;;;;;;20.04;48.93;102724.00;5066626;28;20032;-66
2022/07/10 01:01:16;;;;;;;4.65;1.10;;;;;;;20.22;48.41;102719.47;5068818;28;20086;-66
2022/07/10 01:03:42;;;;;;;5.10;1.30;;;;;;;20.00;48.48;102728.28;5068795;28;20036;-65
2022/07/10 01:06:07;;;;;;;10.25;1.70;;;;;;;19.78;49.33;102726.44;5068340;28;20514;-67
2022/07/10 01:08:33;;;;;;;8.45;1.40;;;;;;;19.65;49.57;102718.53;5068798;28;20114;-66
2022/07/10 01:11:00;;;;;;;5.57;1.33;;;;;;;20.56;47.40;102721.22;5068665;28;20033;-66
2022/07/10 01:13:26;;;;;;;7.25;1.38;;;;;;;20.32;47.73;102714.19;5068671;28;20520;-65
2022/07/10 01:15:52;;;;;;;4.55;1.10;;;;;;;20.01;48.30;102716.28;5070068;28;20043;-66
2022/07/10 01:18:18;;;;;;;8.40;1.67;;;;;;;20.04;48.31;102706.78;5069064;28;20047;-65
2022/07/10 01:20:43;;;;;;;8.68;1.40;;;;;;;20.19;48.43;102712.56;5068706;28;20028;-67
2022/07/10 01:23:09;;;;;;;4.93;1.10;;;;;;;20.01;48.82;102708.09;5068785;28;20028;-66
2022/07/10 01:25:34;;;;;;;13.88;2.03;;;;;;;20.03;48.41;102707.84;5068630;28;20037;-65
2022/07/10 01:28:00;;;;;;;9.35;1.67;;;;;;;19.98;48.73;102705.03;5068510;28;20037;-66
2022/07/10 01:30:26;;;;;;;4.85;1.13;;;;;;;20.65;47.04;102701.44;5068569;28;20048;-65
2022/07/10 01:32:52;;;;;;;8.32;2.20;;;;;;;20.55;47.16;102695.78;5068491;28;20033;-65
2022/07/10 01:35:18;;;;;;;9.30;1.50;;;;;;;19.84;48.73;102692.72;5069535;28;20116;-66
2022/07/10 01:37:44;;;;;;;10.10;1.58;;;;;;;19.67;49.17;102692.66;5068139;28;20396;-66
2022/07/10 01:40:10;;;;;;;7.22;1.52;;;;;;;19.64;49.61;102692.28;5068279;28;20040;-65
2022/07/10 01:42:37;;;;;;;9.27;1.25;;;;;;;19.47;50.01;102691.38;5070408;28;20059;-67
2022/07/10 01:45:05;;;;;;;7.75;2.20;;;;;;;19.61;49.64;102688.16;5068438;28;20048;-65
2022/07/10 01:47:30;;;;;;;7.13;1.13;;;;;;;19.74;49.52;102690.63;5068996;28;20052;-65
2022/07/10 01:49:55;;;;;;;6.28;1.73;;;;;;;19.53;50.14;102691.25;5068641;28;20048;-64
2022/07/10 01:52:21;;;;;;;8.45;1.60;;;;;;;19.26;51.11;102688.16;5068841;28;20031;-67
2022/07/10 01:54:47;;;;;;;5.10;1.20;;;;;;;19.48;50.40;102688.41;5068769;28;20059;-64
2022/07/10 01:57:13;;;;;;;4.30;1.30;;;;;;;19.30;51.07;102683.91;5068971;28;20029;-65
2022/07/10 01:59:39;;;;;;;5.55;1.00;;;;;;;19.93;48.87;102674.91;5068882;28;20579;-66
2022/07/10 02:02:04;;;;;;;14.02;2.05;;;;;;;19.73;49.52;102675.34;5069627;28;20020;-67
2022/07/10 02:04:42;;;;;;;5.93;1.13;;;;;;;20.13;48.80;102672.56;5073776;28;20506;-65
2022/07/10 02:07:13;;;;;;;12.20;1.60;;;;;;;19.78;49.58;102669.97;5088843;28;20036;-65
2022/07/10 02:09:39;;;;;;;8.25;1.52;;;;;;;19.82;50.14;102662.97;5088468;28;20036;-67
2022/07/10 02:12:06;;;;;;;3.50;1.23;;;;;;;19.81;49.43;102655.03;5088824;28;20044;-66
2022/07/10 02:14:31;;;;;;;4.38;1.38;;;;;;;19.51;50.33;102663.41;5089026;28;20062;-66
2022/07/10 02:16:58;;;;;;;13.30;1.50;;;;;;;19.45;50.71;102658.91;5048306;28;20049;-66
2022/07/10 02:19:24;;;;;;;8.80;2.50;;;;;;;19.55;50.60;102659.13;5048401;28;20048;-65
2022/07/10 02:21:49;;;;;;;14.65;2.08;;;;;;;19.45;51.05;102658.06;5052090;28;20044;-65
2022/07/10 02:24:15;;;;;;;8.02;1.30;;;;;;;19.26;51.48;102665.53;5051881;28;20492;-66
2022/07/10 02:26:40;;;;;;;8.57;1.52;;;;;;;19.46;51.10;102655.09;5059287;28;20020;-65
2022/07/10 02:29:05;;;;;;;9.88;2.25;;;;;;;19.91;49.94;102656.03;5072659;28;20032;-66
2022/07/10 02:31:34;;;;;;;13.18;1.90;;;;;;;19.91;50.16;102650.59;5054258;28;20086;-65
2022/07/10 02:34:00;;;;;;;7.47;1.48;;;;;;;19.67;50.28;102649.03;5072122;28;20128;-67
2022/07/10 02:36:25;;;;;;;8.07;1.35;;;;;;;19.94;50.19;102654.72;5072102;28;20544;-66
2022/07/10 02:38:50;;;;;;;6.10;1.67;;;;;;;19.23;52.04;102646.94;5071963;28;20036;-67
2022/07/10 02:41:16;;;;;;;6.10;1.48;;;;;;;19.34;51.90;102646.09;5072470;28;20028;-66
2022/07/10 02:43:41;;;;;;;5.30;1.30;;;;;;;19.28;52.24;102645.13;5071566;28;20036;-65
2022/07/10 02:46:07;;;;;;;7.18;1.65;;;;;;;19.71;50.65;102647.47;5071931;28;20044;-65
2022/07/10 02:48:32;;;;;;;5.90;1.75;;;;;;;19.59;51.55;102648.56;5071471;28;20039;-65
2022/07/10 02:50:57;;;;;;;9.70;1.75;;;;;;;19.13;52.69;102646.69;5070830;28;20352;-66
2022/07/10 02:53:23;;;;;;;12.40;1.35;;;;;;;19.36;52.36;102651.34;5070957;28;20464;-65
2022/07/10 02:55:48;;;;;;;13.00;1.42;;;;;;;19.49;51.49;102649.19;5070807;28;20191;-67
2022/07/10 02:58:15;;;;;;;13.88;1.65;;;;;;;19.77;50.59;102648.41;5071109;28;20128;-65
2022/07/10 03:00:41;;;;;;;6.25;1.63;;;;;;;19.87;50.54;102648.59;5070923;28;20060;-67
2022/07/10 03:03:07;;;;;;;8.57;1.73;;;;;;;19.81;50.70;102649.56;5051806;28;20036;-66
2022/07/10 03:05:33;;;;;;;5.07;1.20;;;;;;;19.63;50.94;102641.56;5084699;28;20440;-65
2022/07/10 03:07:59;;;;;;;5.97;1.42;;;;;;;19.97;50.16;102643.31;5090362;28;20111;-66
2022/07/10 03:10:24;;;;;;;11.57;2.25;;;;;;;19.62;51.19;102651.63;5090068;28;20099;-66
2022/07/10 03:12:50;;;;;;;11.00;1.73;;;;;;;19.99;50.54;102647.47;5090860;28;20088;-67
2022/07/10 03:15:15;;;;;;;6.32;1.00;;;;;;;19.89;50.51;102650.00;5083923;28;20047;-67
2022/07/10 03:17:40;;;;;;;11.40;1.48;;;;;;;20.15;50.09;102648.59;5069944;28;20056;-65
2022/07/10 03:20:08;;;;;;;10.80;1.60;;;;;;;19.69;50.94;102656.97;5051840;28;20032;-66
2022/07/10 03:22:34;;;;;;;8.20;1.77;;;;;;;20.11;50.45;102653.72;5069944;28;20054;-65
2022/07/10 03:24:59;;;;;;;15.25;1.30;;;;;;;20.36;49.52;102655.28;5070014;28;20491;-66
2022/07/10 03:27:25;;;;;;;8.60;1.50;;;;;;;20.28;49.64;102650.22;5069528;28;20056;-65
2022/07/10 03:29:50;;;;;;;13.07;2.25;;;;;;;20.27;49.12;102643.09;5070275;28;20086;-66
2022/07/10 03:32:15;;;;;;;8.98;1.83;;;;;;;20.08;49.79;102645.19;5070884;28;20020;-65
2022/07/10 03:34:41;;;;;;;10.68;2.30;;;;;;;20.04;50.09;102649.47;5069484;28;20491;-66
2022/07/10 03:37:06;;;;;;;17.60;1.65;;;;;;;19.83;50.58;102648.22;5069333;28;20492;-64
2022/07/10 03:39:32;;;;;;;15.82;1.92;;;;;;;19.90;50.46;102650.84;5069506;28;20524;-67
2022/07/10 03:41:57;;;;;;;3.35;0.98;;;;;;;20.07;49.72;102651.69;5069349;28;20554;-67
2022/07/10 03:44:23;;;;;;;8.98;1.60;;;;;;;20.54;48.87;102647.69;5070119;28;20035;-67
2022/07/10 03:46:48;;;;;;;5.95;1.10;;;;;;;20.01;50.62;102649.94;5069849;28;20074;-65
2022/07/10 03:49:13;;;;;;;14.43;1.85;;;;;;;19.47;52.44;102659.50;5069251;28;20098;-65
2022/07/10 03:51:39;;;;;;;7.05;1.30;;;;;;;19.72;51.62;102648.28;5069063;28;20108;-65
2022/07/10 03:54:04;;;;;;;8.55;1.60;;;;;;;19.91;50.81;102655.22;5069244;28;20041;-65
2022/07/10 03:59:14;;;;;;;6.80;1.80;;;;;;;19.76;51.47;102646.72;5069545;28;20239;-66
2022/07/10 04:01:39;;;;;;;6.50;2.05;;;;;;;20.16;50.58;102647.53;5069784;28;20024;-65
2022/07/10 04:04:04;;;;;;;8.77;1.52;;;;;;;20.07;50.73;102651.69;5070003;28;20041;-66
2022/07/10 04:06:30;;;;;;;8.68;1.27;;;;;;;19.86;50.91;102650.50;5081581;28;20495;-65
2022/07/10 04:08:55;;;;;;;10.80;1.77;;;;;;;20.33;49.77;102650.28;5070423;28;20098;-67
2022/07/10 04:11:20;;;;;;;9.07;1.92;;;;;;;20.74;49.01;102647.19;5069531;28;20016;-67
2022/07/10 04:13:46;;;;;;;7.40;1.40;;;;;;;21.07;47.60;102646.38;5068927;28;20044;-66
2022/07/10 04:16:12;;;;;;;10.27;2.88;;;;;;;20.77;49.34;102646.69;5082402;28;20595;-66
2022/07/10 04:18:41;;;;;;;8.70;1.35;;;;;;;20.33;50.63;102647.56;5088662;28;20028;-67
2022/07/10 04:21:07;;;;;;;6.50;1.38;;;;;;;20.81;49.05;102639.66;5068727;28;20425;-68
2022/07/10 04:23:33;;;;;;;6.18;1.60;;;;;;;20.55;49.85;102643.06;5069073;28;20373;-65
2022/07/10 04:25:59;;;;;;;7.40;1.80;;;;;;;20.59;50.15;102646.94;5066609;28;20039;-64
2022/07/10 04:28:24;;;;;;;14.48;2.13;;;;;;;20.93;48.84;102638.47;5048960;28;20032;-64
2022/07/10 04:30:50;;;;;;;10.23;1.65;;;;;;;20.32;50.70;102635.84;5049434;28;20411;-66
2022/07/10 04:33:15;;;;;;;7.57;1.05;;;;;;;20.66;50.09;102636.66;5048788;28;20079;-66
2022/07/10 04:35:41;;;;;;;8.70;1.10;;;;;;;20.57;49.94;102638.16;5068543;28;20036;-65
2022/07/10 04:38:06;;;;;;;9.82;1.38;;;;;;;20.40;50.79;102632.69;5069309;28;20037;-64
2022/07/10 04:40:32;;;;;;;12.13;2.00;;;;;;;20.23;51.28;102631.84;5068506;28;20037;-63
2022/07/10 04:42:57;;;;;;;8.48;1.67;;;;;;;20.29;51.12;102628.13;5068165;28;20044;-65
2022/07/10 04:45:22;;;;;;;6.93;1.08;;;;;;;20.12;51.77;102640.91;5068256;28;20040;-64
2022/07/10 04:47:48;;;;;;;8.02;1.67;;;;;;;20.02;52.21;102632.50;5068850;28;20036;-64
2022/07/10 04:50:13;;;;;;;7.90;1.08;;;;;;;19.48;53.63;102633.88;5069301;28;20276;-66
2022/07/10 04:52:39;;;;;;;6.38;1.50;;;;;;;19.89;52.87;102633.63;5068376;28;20033;-64
2022/07/10 04:55:04;;;;;;;10.52;1.70;;;;;;;20.48;51.57;102628.75;5068189;28;20558;-65
2022/07/10 04:57:30;;;;;;;8.25;1.42;;;;;;;20.19;52.43;102632.56;5068441;28;20056;-63
2022/07/10 04:59:56;;;;;;;6.70;1.23;;;;;;;20.17;52.15;102626.53;5068498;28;20082;-64
2022/07/10 05:02:22;;;;;;;6.10;1.15;;;;;;;20.37;51.97;102637.81;5069050;28;20066;-65
2022/07/10 05:04:47;;;;;;;13.80;1.45;;;;;;;20.21;52.29;102630.41;5068177;28;20436;-64
2022/07/10 05:07:14;;;;;;;7.72;2.00;;;;;;;20.54;51.99;102634.00;5068177;28;20032;-64
2022/07/10 05:09:39;;;;;;;8.07;1.42;;;;;;;20.53;51.74;102634.28;5067703;28;20028;-64
2022/07/10 05:12:05;;;;;;;12.07;3.58;;;;;;;20.52;52.24;102638.91;5068284;28;20035;-64
2022/07/10 05:14:31;;;;;;;9.43;1.95;;;;;;;20.86;51.44;102637.00;5068308;28;20082;-63
2022/07/10 05:16:57;;;;;;;13.93;1.70;;;;;;;20.54;53.14;102655.06;5067769;28;20115;-63
2022/07/10 05:19:22;;;;;;;4.53;1.00;;;;;;;21.31;51.09;102640.44;5073937;28;20035;-63
2022/07/10 05:21:47;;;;;;;6.65;1.80;;;;;;;20.50;52.93;102649.25;5088379;28;20028;-65
2022/07/10 05:24:13;;;;;;;13.73;1.92;;;;;;;20.43;53.97;102634.09;5088169;28;20047;-63
2022/07/10 05:26:38;;;;;;;14.15;2.08;;;;;;;20.95;52.53;102647.25;5080418;28;20016;-64
2022/07/10 05:29:03;;;;;;;5.22;1.48;;;;;;;21.09;52.17;102652.41;5068334;28;20029;-63
2022/07/10 05:31:29;;;;;;;9.20;1.63;;;;;;;20.30;54.53;102654.38;5067520;28;20036;-65
2022/07/10 05:33:54;;;;;;;10.23;1.65;;;;;;;21.45;51.67;102646.34;5049955;28;20110;-64
2022/07/10 05:36:20;;;;;;;9.85;1.75;;;;;;;21.16;52.35;102651.16;5068245;28;20028;-64
2022/07/10 05:38:45;;;;;;;12.85;1.50;;;;;;;21.02;52.74;102646.28;5049043;28;20048;-64
2022/07/10 05:41:11;;;;;;;6.38;1.40;;;;;;;20.93;53.21;102640.41;5068765;28;20601;-64
2022/07/10 05:43:36;;;;;;;6.40;1.77;;;;;;;20.80;53.69;102646.19;5067549;28;20037;-64
2022/07/10 05:46:01;;;;;;;8.60;2.25;;;;;;;21.11;53.01;102644.78;5067919;28;20024;-64
2022/07/10 05:48:27;;;;;;;7.05;1.60;;;;;;;21.14;53.18;102641.53;5067688;28;20043;-65
2022/07/10 05:50:52;;;;;;;18.92;2.15;;;;;;;21.44;52.22;102639.25;5067632;28;20078;-64
2022/07/10 05:53:19;;;;;;;8.45;1.70;;;;;;;21.38;52.70;102638.34;5068600;28;20099;-65
2022/07/10 05:55:48;;;;;;;9.65;1.20;;;;;;;20.61;54.71;102642.06;5051355;28;20480;-65
2022/07/10 05:58:14;;;;;;;6.90;1.40;;;;;;;21.55;51.96;102641.84;5071313;28;20040;-65
2022/07/10 06:00:40;;;;;;;13.50;1.92;;;;;;;21.63;52.57;102641.41;5071250;28;20107;-64
2022/07/10 06:03:05;;;;;;;11.18;1.25;;;;;;;20.64;54.89;102647.84;5071749;28;20043;-65
2022/07/10 06:05:30;;;;;;;6.97;1.80;;;;;;;21.46;53.44;102637.06;5072072;28;20460;-64
2022/07/10 06:07:56;;;;;;;6.80;1.55;;;;;;;21.71;52.81;102640.13;5070876;28;20472;-63
2022/07/10 06:10:21;;;;;;;13.48;2.97;;;;;;;21.77;52.49;102642.69;5070864;28;20033;-63
2022/07/10 06:12:47;;;;;;;4.72;1.40;;;;;;;21.27;53.74;102638.44;5071404;28;20035;-65
2022/07/10 06:15:12;;;;;;;8.57;1.35;;;;;;;21.28;54.29;102640.09;5070661;28;20051;-64
2022/07/10 06:17:38;;;;;;;10.45;1.77;;;;;;;21.50;53.81;102644.50;5071449;28;20384;-64
2022/07/10 06:20:03;;;;;;;11.13;1.73;;;;;;;21.61;54.09;102645.47;5083440;28;20036;-64
2022/07/10 06:22:31;;;;;;;4.72;1.48;;;;;;;21.53;53.86;102654.94;5091102;28;20087;-65
2022/07/10 06:25:06;;;;;;;11.60;1.60;;;;;;;21.62;53.44;102656.16;5091320;28;20051;-65
2022/07/10 06:27:32;;;;;;;8.02;1.80;;;;;;;21.80;53.36;102649.53;5075781;28;20046;-65
2022/07/10 06:29:57;;;;;;;12.23;1.95;;;;;;;21.42;54.25;102655.91;5070727;28;20040;-64
2022/07/10 06:32:24;;;;;;;7.85;1.50;;;;;;;21.41;54.34;102662.44;5071323;28;20087;-64
2022/07/10 06:34:51;;;;;;;8.45;1.75;;;;;;;21.79;53.50;102662.41;5083860;28;20055;-65
2022/07/10 06:37:17;;;;;;;9.30;1.67;;;;;;;21.90;53.64;102654.31;5091310;28;20032;-64
2022/07/10 06:39:42;;;;;;;8.15;1.85;;;;;;;21.66;52.99;102660.03;5090703;28;20063;-64
2022/07/10 06:42:07;;;;;;;10.65;2.22;;;;;;;21.97;52.71;102652.22;5090698;28;20051;-63
2022/07/10 06:44:34;;;;;;;8.05;1.58;;;;;;;22.05;52.59;102658.09;5090992;28;20176;-62
2022/07/10 06:49:45;;;;;;;11.35;1.83;;;;;;;21.53;54.50;102662.31;5090805;28;20562;-64
2022/07/10 06:52:11;;;;;;;7.68;1.65;;;;;;;21.40;55.04;102651.78;5090685;28;20120;-64
2022/07/10 06:54:37;;;;;;;7.28;2.10;;;;;;;21.34;55.67;102648.13;5090449;28;20028;-65
2022/07/10 06:57:03;;;;;;;10.20;2.10;;;;;;;21.31;55.75;102656.00;5090340;28;20043;-63
2022/07/10 06:59:28;;;;;;;4.13;1.20;;;;;;;21.35;56.08;102655.25;5090785;28;20209;-64
2022/07/10 07:01:53;;;;;;;12.30;2.10;;;;;;;21.94;54.70;102656.28;5090340;28;20340;-65
2022/07/10 07:04:19;;;;;;;7.65;1.77;;;;;;;21.96;55.01;102656.88;5090623;28;20569;-65
2022/07/10 07:06:44;;;;;;;4.80;1.23;;;;;;;21.57;55.77;102653.38;5090079;28;20506;-65
2022/07/10 07:09:10;;;;;;;8.73;1.92;;;;;;;21.62;55.50;102656.16;5090711;28;20032;-63
2022/07/10 07:11:35;;;;;;;5.60;1.30;;;;;;;21.88;54.94;102643.63;5083742;28;20017;-64
2022/07/10 07:14:01;;;;;;;6.07;1.35;;;;;;;21.85;54.83;102646.91;5052031;28;20079;-64
2022/07/10 07:16:38;;;;;;;6.28;1.60;;;;;;;21.49;55.73;102656.53;5069937;28;20039;-68
2022/07/10 07:19:07;;;;;;;5.78;1.52;;;;;;;21.58;54.73;102651.47;5073398;28;20399;-64
2022/07/10 07:24:18;;;;;;;10.80;1.75;;;;;;;21.99;53.94;102644.59;5071438;28;20048;-66
2022/07/10 07:26:46;;;;;;;3.60;1.13;;;;;;;21.10;57.38;102660.38;5061664;28;20178;-66
2022/07/10 07:29:12;;;;;;;4.25;1.55;;;;;;;21.22;58.82;102663.00;5050438;28;20036;-66
2022/07/10 07:31:38;;;;;;;2.67;1.08;;;;;;;21.50;58.82;102654.63;5031734;28;20488;-67
2022/07/10 07:34:03;;;;;;;7.78;1.42;;;;;;;20.55;61.70;102664.91;5062785;28;20040;-68
2022/07/10 07:36:30;;;;;;;3.55;1.10;;;;;;;21.08;59.91;102659.78;5090072;28;20426;-68
2022/07/10 07:38:55;;;;;;;3.05;1.42;;;;;;;20.48;61.38;102661.50;5090049;28;20036;-68
2022/07/10 07:41:22;;;;;;;4.65;1.42;;;;;;;20.65;61.83;102665.06;5090237;28;20074;-66
2022/07/10 07:43:48;;;;;;;7.72;1.55;;;;;;;21.68;58.39;102665.25;5089965;28;20036;-69
2022/07/10 07:46:13;;;;;;;7.40;1.73;;;;;;;21.00;59.98;102663.75;5070642;28;20040;-68
2022/07/10 07:48:39;;;;;;;7.70;2.03;;;;;;;21.15;60.30;102665.09;5071129;28;20040;-69
2022/07/10 07:51:04;;;;;;;8.77;1.52;;;;;;;21.04;60.65;102666.84;5089752;28;20372;-68
2022/07/10 07:53:30;;;;;;;7.28;2.78;;;;;;;21.73;59.19;102668.91;5089946;28;20165;-67
2022/07/10 07:55:55;;;;;;;5.45;1.88;;;;;;;22.31;57.35;102665.44;5088985;28;20044;-69
2022/07/10 07:58:20;;;;;;;6.95;2.08;;;;;;;22.28;56.94;102663.25;5090013;28;20028;-66
2022/07/10 08:00:46;;;;;;;7.13;1.95;;;;;;;21.67;59.05;102663.59;5065227;28;20048;-67
2022/07/10 08:03:11;;;;;;;8.75;2.08;;;;;;;22.04;58.11;102664.63;5069183;28;20040;-66
2022/07/10 08:05:37;;;;;;;9.23;3.08;;;;;;;21.91;58.14;102667.78;5068965;28;20033;-69
2022/07/10 08:08:08;;;;;;;9.93;1.95;;;;;;;22.32;57.29;102658.91;5051590;28;20020;-67
2022/07/10 08:10:34;;;;;;;5.05;2.72;;;;;;;22.46;56.12;102654.66;5068777;28;20059;-66
2022/07/10 08:13:00;;;;;;;4.38;1.60;;;;;;;21.93;58.53;102656.56;5068604;28;20437;-65
2022/07/10 08:15:25;;;;;;;6.38;1.92;;;;;;;22.50;56.63;102650.31;5068409;28;20045;-66
2022/07/10 08:17:56;;;;;;;7.97;2.25;;;;;;;22.42;56.26;102659.00;5068344;28;20040;-67
2022/07/10 08:20:22;;;;;;;7.53;1.83;;;;;;;21.89;57.10;102659.00;5083614;28;20023;-67
2022/07/10 08:22:49;;;;;;;11.50;1.75;;;;;;;21.44;58.69;102664.69;5089284;28;20406;-67
2022/07/10 08:25:15;;;;;;;6.00;1.38;;;;;;;21.20;59.38;102665.16;5089101;28;20036;-67
2022/07/10 08:27:40;;;;;;;13.80;2.00;;;;;;;21.63;58.62;102659.72;5072774;28;20119;-66
2022/07/10 08:30:08;;;;;;;2.38;1.38;;;;;;;21.72;58.49;102661.75;5051087;28;20083;-67
2022/07/10 08:32:34;;;;;;;6.22;1.75;;;;;;;22.17;57.83;102657.94;5069394;28;20029;-68
2022/07/10 08:35:00;;;;;;;7.97;1.80;;;;;;;23.12;54.80;102656.00;5083232;28;20034;-67
2022/07/10 08:37:26;;;;;;;8.35;1.55;;;;;;;22.53;57.09;102644.28;5089348;28;20446;-67
2022/07/10 08:39:51;;;;;;;5.47;1.92;;;;;;;22.75;56.04;102646.97;5088852;28;20430;-66
2022/07/10 08:42:18;;;;;;;10.05;1.70;;;;;;;22.35;56.12;102654.78;5089190;28;20059;-68
2022/07/10 08:44:43;;;;;;;4.22;1.73;;;;;;;22.85;54.76;102654.44;5088675;28;20028;-68
2022/07/10 08:47:11;;;;;;;6.28;1.80;;;;;;;22.98;53.99;102648.50;5077948;28;20029;-66
2022/07/10 08:49:36;;;;;;;8.55;2.25;;;;;;;22.04;56.66;102655.56;5067865;28;20032;-66
2022/07/10 08:52:08;;;;;;;6.90;1.65;;;;;;;22.22;55.90;102667.00;5068305;28;20041;-67
2022/07/10 08:54:34;;;;;;;5.00;1.10;;;;;;;21.31;57.64;102659.56;5065828;28;20033;-66
2022/07/10 08:57:01;;;;;;;5.90;1.15;;;;;;;21.77;56.13;102659.09;5068079;28;20059;-67
2022/07/10 08:59:28;;;;;;;1.98;0.98;;;;;;;21.90;55.14;102652.41;5068924;28;20016;-67
2022/07/10 09:01:54;;;;;;;2.25;1.20;;;;;;;21.93;55.13;102657.41;5068038;28;20036;-66
2022/07/10 09:04:25;;;;;;;2.95;1.15;;;;;;;22.00;54.73;102662.66;5068303;28;20036;-67
2022/07/10 09:06:51;;;;;;;5.38;1.15;;;;;;;22.95;53.39;102658.09;5067476;28;20090;-68
2022/07/10 09:09:17;;;;;;;5.18;0.77;;;;;;;23.29;52.08;102661.34;5067955;28;20041;-69
2022/07/10 09:11:43;;;;;;;5.85;1.73;;;;;;;22.94;53.41;102648.19;5066901;28;20036;-67
2022/07/10 09:14:13;;;;;;;5.72;1.15;;;;;;;23.45;51.91;102649.34;5067728;28;20404;-68
2022/07/10 09:16:44;;;;;;;3.28;1.08;;;;;;;23.10;52.37;102655.44;5067717;28;20032;-65
2022/07/10 09:19:23;;;;;;;9.05;1.45;;;;;;;22.75;52.29;102646.97;5063990;28;20032;-66
2022/07/10 09:21:54;;;;;;;3.13;1.05;;;;;;;21.71;53.70;102643.69;5067782;28;20102;-69
2022/07/10 09:24:22;;;;;;;3.53;1.33;;;;;;;22.49;53.07;102645.91;5067520;28;20086;-66
2022/07/10 09:27:00;;;;;;;3.25;1.05;;;;;;;22.67;52.75;102641.97;5064978;28;20029;-68
2022/07/10 09:29:25;;;;;;;6.05;0.95;;;;;;;22.20;52.74;102641.81;5069053;28;20024;-68
2022/07/10 09:31:56;;;;;;;6.47;0.90;;;;;;;22.25;53.26;102641.84;5071429;28;20488;-64
2022/07/10 09:34:42;;;;;;;2.55;0.88;;;;;;;22.49;52.73;102634.94;5071884;28;20093;-64
2022/07/10 09:37:27;;;;;;;3.25;0.90;;;;;;;22.54;51.36;102639.66;5070767;28;20484;-66
2022/07/10 09:40:03;;;;;;;2.85;1.10;;;;;;;21.69;52.61;102634.91;5070954;28;20067;-66
2022/07/10 09:42:39;;;;;;;4.80;1.00;;;;;;;21.98;52.85;102638.28;5070818;28;20133;-66
2022/07/10 09:45:15;;;;;;;7.45;1.60;;;;;;;21.87;53.96;102638.41;5070923;28;20051;-65
2022/07/10 09:47:52;;;;;;;3.90;1.00;;;;;;;22.11;53.50;102640.59;5071010;28;20032;-65
2022/07/10 09:50:24;;;;;;;2.42;0.95;;;;;;;21.80;54.52;102641.31;5070750;28;20114;-65
2022/07/10 09:52:54;;;;;;;3.83;1.00;;;;;;;21.96;54.03;102634.13;5069010;28;20082;-65
2022/07/10 09:55:21;;;;;;;6.72;1.73;;;;;;;22.17;54.14;102641.50;5071580;28;20046;-65
2022/07/10 09:58:02;;;;;;;4.40;1.48;;;;;;;22.01;53.93;102640.50;5070166;28;20387;-63
2022/07/10 10:00:32;;;;;;;2.22;1.02;;;;;;;22.08;53.92;102632.91;5070160;28;20388;-64
2022/07/10 10:03:00;;;;;;;2.97;1.10;;;;;;;22.59;52.32;102631.50;5071082;28;20431;-64
2022/07/10 10:05:45;;;;;;;4.68;1.30;;;;;;;22.91;51.60;102631.47;5071001;28;20017;-65
2022/07/10 10:08:19;;;;;;;4.28;1.50;;;;;;;22.31;53.21;102640.81;5052023;28;20067;-65
2022/07/10 10:10:49;;;;;;;3.40;1.27;;;;;;;21.63;55.28;102644.13;5069720;28;20040;-64
2022/07/10 10:13:23;;;;;;;5.38;1.45;;;;;;;21.22;55.67;102644.69;5070917;28;20324;-65
2022/07/10 10:15:51;;;;;;;5.45;1.38;;;;;;;21.99;54.25;102644.59;5071259;28;20036;-65
2022/07/10 10:18:21;;;;;;;4.35;1.27;;;;;;;22.38;53.31;102641.44;5069093;28;20554;-67
2022/07/10 10:20:47;;;;;;;;;;;;;;;23.12;51.16;102630.50;5071402;28;20060;-65
2022/07/10 10:23:18;;;;;;;3.67;1.50;;;;;;;22.98;51.33;102630.13;5052602;28;19954;-63
2022/07/10 10:25:44;;;;;;;4.95;1.50;;;;;;;23.30;50.11;102625.41;5070456;28;20033;-65
2022/07/10 10:28:11;;;;;;;6.63;1.30;;;;;;;23.53;49.75;102619.50;5070187;28;20036;-65
2022/07/10 10:30:42;;;;;;;5.25;1.23;;;;;;;23.59;49.44;102628.56;5057754;28;20079;-66
2022/07/10 10:33:32;;;;;;;8.18;1.65;;;;;;;23.94;48.82;102622.38;5068107;28;20335;-66
2022/07/10 10:35:58;;;;;;;5.50;1.70;;;;;;;23.91;48.47;102628.41;5065924;28;20073;-64
2022/07/10 10:38:24;;;;;;;7.28;2.15;;;;;;;23.54;48.78;102623.06;5070844;28;20021;-66
2022/07/10 10:40:49;;;;;;;3.38;2.03;;;;;;;23.37;49.30;102623.25;5069383;28;20119;-66
2022/07/10 10:43:20;;;;;;;7.45;1.10;;;;;;;23.64;48.50;102630.50;5066156;28;20040;-64
2022/07/10 10:45:48;;;;;;;3.92;1.40;;;;;;;23.20;49.08;102619.03;5068557;28;20036;-65
2022/07/10 10:48:20;;;;;;;4.57;1.10;;;;;;;22.89;50.01;102620.75;5068778;28;20574;-68
2022/07/10 10:50:48;;;;;;;7.30;1.48;;;;;;;22.93;50.08;102621.06;5051505;28;20040;-66
2022/07/10 10:53:28;;;;;;;4.93;2.22;;;;;;;23.14;50.07;102617.34;5067853;28;20642;-67
2022/07/10 10:55:59;;;;;;;9.45;1.10;;;;;;;23.45;48.97;102617.25;5070217;28;20037;-64
2022/07/10 10:58:26;;;;;;;7.93;1.40;;;;;;;24.68;47.22;102620.81;5065814;28;20139;-67
2022/07/10 11:00:52;;;;;;;3.97;1.42;;;;;;;23.74;48.24;102614.91;5067113;28;20040;-68
2022/07/10 11:03:23;;;;;;;2.40;1.17;;;;;;;23.93;47.28;102626.19;5069647;28;20045;-68
2022/07/10 11:05:50;;;;;;;4.03;1.10;;;;;;;23.43;48.96;102610.38;5070416;28;20036;-69
2022/07/10 11:08:36;;;;;;;4.15;1.00;;;;;;;23.25;49.60;102611.63;5070398;28;20111;-68
2022/07/10 11:11:01;;;;;;;4.57;1.30;;;;;;;22.56;51.17;102618.28;5067657;28;20048;-68
2022/07/10 11:13:29;;;;;;;5.20;1.25;;;;;;;23.03;50.30;102610.16;5069515;28;20021;-66
2022/07/10 11:15:57;;;;;;;2.20;1.00;;;;;;;22.55;51.71;102614.72;5069224;28;20054;-67
2022/07/10 11:18:24;;;;;;;6.65;1.13;;;;;;;22.89;50.83;102617.19;5069231;28;20036;-66
2022/07/10 11:20:53;;;;;;;2.08;0.90;;;;;;;22.91;51.15;102620.50;5066266;28;20027;-66
2022/07/10 11:23:55;;;;;;;4.47;1.30;;;;;;;23.37;49.98;102620.50;5068929;28;20116;-65
2022/07/10 11:26:27;;;;;;;3.67;1.58;;;;;;;22.67;51.88;102612.66;5060886;28;20127;-67
2022/07/10 11:28:54;;;;;;;8.00;1.30;;;;;;;22.88;51.72;102618.28;5066094;28;20047;-65
2022/07/10 11:31:23;;;;;;;3.15;0.82;;;;;;;23.16;50.97;102613.25;5066883;28;20396;-64